createdAt,value
2023-01-19T00:00:25.103Z,93847.00
2023-01-19T00:01:25.007Z,93854.00
2023-01-19T00:02:24.995Z,93854.00
2023-01-19T00:03:24.925Z,93854.00
2023-01-19T00:04:24.871Z,93854.00
2023-01-19T00:05:24.852Z,93858.00
2023-01-19T00:06:24.792Z,93860.00
2023-01-19T00:07:24.742Z,93860.00
2023-01-19T04:23:43.079Z,93998.00
2023-01-19T04:24:43.039Z,93998.00
2023-01-19T04:25:43.028Z,93996.00
2023-01-19T04:26:43.009Z,93996.00
2023-01-19T04:27:42.992Z,93996.00
2023-01-19T04:28:42.992Z,93998.00
2023-01-19T04:29:42.955Z,93996.00
2023-01-19T04:30:42.938Z,93996.00
2023-01-19T04:31:42.920Z,93996.00
2023-01-19T04:32:42.908Z,93996.00
2023-01-19T04:33:42.888Z,93996.00
2023-01-19T04:34:42.865Z,93994.00
2023-01-19T04:35:42.845Z,93996.00
2023-01-19T04:36:42.835Z,93996.00
2023-01-19T04:37:42.806Z,93996.00
2023-01-19T04:38:42.808Z,93994.00
2023-01-19T06:03:41.103Z,94062.00
2023-01-19T06:04:41.001Z,94062.00
2023-01-19T06:05:40.996Z,94062.00
2023-01-19T06:06:40.961Z,94062.00
2023-01-19T06:07:40.943Z,94068.00
2023-01-19T06:08:40.928Z,94062.00
2023-01-19T06:09:40.914Z,94064.00
2023-01-19T06:10:40.907Z,94064.00
2023-01-19T06:11:40.888Z,94064.00
2023-01-19T06:12:40.996Z,94064.00
2023-01-19T06:13:42.122Z,94064.00
2023-01-19T06:14:40.867Z,94068.00
2023-01-19T06:15:40.831Z,94064.00
2023-01-19T06:17:40.803Z,94068.00
2023-01-19T06:19:40.761Z,94068.00
2023-01-19T06:20:40.734Z,94068.00
2023-01-19T06:21:40.718Z,94066.00
2023-01-19T06:22:40.706Z,94068.00
2023-01-19T06:24:40.663Z,94074.00
2023-01-19T06:25:40.632Z,94076.00
2023-01-19T06:26:40.629Z,94078.00
2023-01-19T06:27:40.609Z,94076.00
2023-01-19T06:29:40.567Z,94076.00
2023-01-19T06:30:40.608Z,94076.00
2023-01-19T06:31:40.574Z,94078.00
2023-01-19T06:32:40.518Z,94076.00
2023-01-19T06:33:40.497Z,94080.00
2023-01-19T06:34:40.479Z,94078.00
2023-01-19T06:35:40.456Z,94076.00
2023-01-19T06:36:40.442Z,94078.00
2023-01-19T06:37:40.553Z,94080.00
2023-01-19T06:38:40.416Z,94084.00
2023-01-19T06:39:40.553Z,94082.00
2023-01-19T06:40:40.373Z,94082.00
2023-01-19T06:41:40.368Z,94090.00
2023-01-19T06:42:40.341Z,94086.00
2023-01-19T06:43:40.329Z,94090.00
2023-01-19T06:44:40.554Z,94092.00
2023-01-19T06:45:40.406Z,94090.00
2023-01-19T06:46:40.309Z,94094.00
2023-01-19T06:47:40.695Z,94094.00
2023-01-19T06:48:40.278Z,94096.00
2023-01-19T06:49:40.558Z,94096.00
2023-01-19T06:50:40.182Z,94098.00
2023-01-19T06:52:40.150Z,94096.00
2023-01-19T06:54:40.109Z,94100.00
2023-01-19T06:55:41.061Z,94102.00
2023-01-19T06:57:40.013Z,94102.00
2023-01-19T06:58:39.998Z,94102.00
2023-01-19T06:59:40.786Z,94104.00
2023-01-19T07:00:39.947Z,94111.00
2023-01-19T07:01:40.083Z,94113.00
2023-01-19T07:02:40.047Z,94113.00
2023-01-19T07:03:40.062Z,94115.00
2023-01-19T07:04:39.849Z,94115.00
2023-01-19T07:05:39.828Z,94117.00
2023-01-19T07:06:55.420Z,94115.00
2023-01-19T07:07:40.092Z,94117.00
2023-01-19T07:09:39.741Z,94119.00
2023-01-19T07:11:22.287Z,94117.00
2023-01-19T07:11:39.687Z,94119.00
2023-01-19T07:12:40.063Z,94119.00
2023-01-19T07:13:39.636Z,94119.00
2023-01-19T07:14:39.797Z,94119.00
2023-01-19T07:15:39.603Z,94115.00
2023-01-19T07:16:39.609Z,94115.00
2023-01-19T07:17:39.571Z,94113.00
2023-01-19T07:19:39.489Z,94117.00
2023-01-19T07:20:39.472Z,94117.00
2023-01-19T07:23:39.388Z,94121.00
2023-01-19T07:24:39.358Z,94123.00
2023-01-19T07:25:39.409Z,94127.00
2023-01-19T07:26:39.307Z,94131.00
2023-01-19T07:27:39.651Z,94133.00
2023-01-19T07:28:39.287Z,94133.00
2023-01-19T07:29:39.320Z,94133.00
2023-01-19T07:30:39.415Z,94133.00
2023-01-19T07:31:39.823Z,94133.00
2023-01-19T07:32:39.189Z,94135.00
2023-01-19T07:33:39.167Z,94133.00
2023-01-19T07:34:39.231Z,94139.00
2023-01-19T07:35:39.196Z,94143.00
2023-01-19T07:36:39.220Z,94137.00
2023-01-19T07:37:39.612Z,94137.00
2023-01-19T07:38:39.622Z,94135.00
2023-01-19T07:39:39.277Z,94137.00
2023-01-19T07:40:39.274Z,94135.00
2023-01-19T07:41:55.661Z,94137.00
2023-01-19T07:43:39.391Z,94139.00
2023-01-19T07:44:39.421Z,94139.00
2023-01-19T07:45:39.830Z,94143.00
2023-01-19T07:47:39.493Z,94147.00
2023-01-19T07:48:39.472Z,94155.00
2023-01-19T07:49:39.490Z,94157.00
2023-01-19T07:50:39.631Z,94158.00
2023-01-19T07:51:39.602Z,94160.00
2023-01-19T07:53:42.841Z,94162.00
2023-01-19T07:54:39.443Z,94162.00
2023-01-19T07:55:39.433Z,94162.00
2023-01-19T07:58:39.618Z,94162.00
2023-01-19T08:00:39.401Z,94166.00
2023-01-19T08:01:39.579Z,94166.00
2023-01-19T08:02:39.362Z,94164.00
2023-01-19T08:03:39.620Z,94162.00
2023-01-19T08:04:39.596Z,94166.00
2023-01-19T08:05:39.360Z,94166.00
2023-01-19T08:06:39.388Z,94168.00
2023-01-19T08:07:39.250Z,94166.00
2023-01-19T08:09:39.210Z,94172.00
2023-01-19T08:10:39.370Z,94170.00
2023-01-19T08:11:39.281Z,94172.00
2023-01-19T08:12:39.764Z,94174.00
2023-01-19T08:13:39.147Z,94174.00
2023-01-19T08:14:39.058Z,94174.00
2023-01-19T08:15:39.076Z,94176.00
2023-01-19T08:17:39.015Z,94184.00
2023-01-19T08:18:40.140Z,94184.00
2023-01-19T08:19:41.365Z,94184.00
2023-01-19T08:20:39.908Z,94188.00
2023-01-19T08:23:39.214Z,94186.00
2023-01-19T08:24:38.819Z,94186.00
2023-01-19T08:25:38.831Z,94186.00
2023-01-19T08:26:39.783Z,94190.00
2023-01-19T08:27:38.728Z,94192.00
2023-01-19T08:28:39.137Z,94200.00
2023-01-19T08:29:38.682Z,94202.00
2023-01-19T08:30:38.757Z,94204.00
2023-01-19T08:32:38.607Z,94204.00
2023-01-19T08:33:38.773Z,94202.00
2023-01-19T08:34:38.513Z,94204.00
2023-01-19T08:35:38.479Z,94204.00
2023-01-19T08:36:38.490Z,94202.00
2023-01-19T08:37:39.390Z,94205.00
2023-01-19T08:38:38.695Z,94204.00
2023-01-19T08:39:38.410Z,94207.00
2023-01-19T08:40:38.351Z,94209.00
2023-01-19T08:41:38.320Z,94209.00
2023-01-19T08:42:38.283Z,94209.00
2023-01-19T08:43:38.725Z,94211.00
2023-01-19T08:44:46.637Z,94211.00
2023-01-19T08:45:38.219Z,94209.00
2023-01-19T08:46:38.231Z,94205.00
2023-01-19T08:47:38.145Z,94205.00
2023-01-19T08:48:39.817Z,94205.00
2023-01-19T08:49:38.349Z,94205.00
2023-01-19T08:50:38.008Z,94204.00
2023-01-19T08:51:37.967Z,94207.00
2023-01-19T08:52:37.901Z,94207.00
2023-01-19T08:53:37.902Z,94209.00
2023-01-19T08:54:38.174Z,94211.00
2023-01-19T08:55:37.811Z,94213.00
2023-01-19T08:56:38.018Z,94211.00
2023-01-19T08:57:37.755Z,94211.00
2023-01-19T08:59:38.136Z,94211.00
2023-01-19T09:00:37.622Z,94213.00
2023-01-19T09:01:37.850Z,94213.00
2023-01-19T09:02:37.732Z,94215.00
2023-01-19T09:03:37.496Z,94215.00
2023-01-19T09:04:37.612Z,94221.00
2023-01-19T09:05:37.470Z,94221.00
2023-01-19T09:06:37.376Z,94219.00
2023-01-19T09:07:37.363Z,94219.00
2023-01-19T09:08:37.304Z,94221.00
2023-01-19T09:09:37.656Z,94221.00
2023-01-19T09:10:37.262Z,94225.00
2023-01-19T09:11:37.162Z,94225.00
2023-01-19T09:12:37.606Z,94225.00
2023-01-19T09:13:37.076Z,94223.00
2023-01-19T09:14:37.611Z,94231.00
2023-01-19T09:15:36.986Z,94231.00
2023-01-19T09:16:36.950Z,94235.00
2023-01-19T09:17:36.923Z,94237.00
2023-01-19T09:18:36.850Z,94241.00
2023-01-19T09:19:36.827Z,94241.00
2023-01-19T09:20:36.762Z,94239.00
2023-01-19T09:21:36.717Z,94241.00
2023-01-19T09:22:37.113Z,94239.00
2023-01-19T09:23:36.649Z,94245.00
2023-01-19T09:24:36.594Z,94245.00
2023-01-19T09:25:36.566Z,94247.00
2023-01-19T09:26:36.557Z,94247.00
2023-01-19T09:27:36.615Z,94249.00
2023-01-19T09:28:36.597Z,94251.00
2023-01-19T09:29:36.353Z,94251.00
2023-01-19T09:30:36.752Z,94255.00
2023-01-19T09:31:36.334Z,94257.00
2023-01-19T09:32:36.840Z,94257.00
2023-01-19T09:33:36.180Z,94259.00
2023-01-19T09:34:37.115Z,94257.00
2023-01-19T09:35:36.116Z,94259.00
2023-01-19T09:36:36.056Z,94259.00
2023-01-19T09:37:35.994Z,94259.00
2023-01-19T09:38:35.949Z,94259.00
2023-01-19T09:39:35.929Z,94259.00
2023-01-19T09:40:41.331Z,94259.00
2023-01-19T09:41:35.800Z,94259.00
2023-01-19T09:42:35.852Z,94257.00
2023-01-19T09:43:35.734Z,94255.00
2023-01-19T09:44:35.696Z,94255.00
2023-01-19T09:45:35.628Z,94255.00
2023-01-19T09:46:36.373Z,94259.00
2023-01-19T09:47:35.631Z,94259.00
2023-01-19T09:48:35.481Z,94260.00
2023-01-19T09:49:35.438Z,94264.00
2023-01-19T09:50:35.396Z,94262.00
2023-01-19T09:51:36.262Z,94264.00
2023-01-19T09:52:35.626Z,94264.00
2023-01-19T09:53:35.250Z,94266.00
2023-01-19T09:54:35.206Z,94262.00
2023-01-19T09:55:35.157Z,94259.00
2023-01-19T09:56:35.168Z,94259.00
2023-01-19T09:57:35.140Z,94257.00
2023-01-19T09:58:35.044Z,94257.00
2023-01-19T09:59:34.978Z,94257.00
2023-01-19T10:00:35.191Z,94257.00
2023-01-19T10:01:35.488Z,94253.00
2023-01-19T10:02:34.878Z,94251.00
2023-01-19T10:03:34.790Z,94251.00
2023-01-19T10:04:34.753Z,94251.00
2023-01-19T10:05:35.131Z,94253.00
2023-01-19T10:06:35.142Z,94253.00
2023-01-19T10:07:34.626Z,94255.00
2023-01-19T10:08:34.587Z,94255.00
2023-01-19T10:09:34.535Z,94257.00
2023-01-19T10:10:34.650Z,94255.00
2023-01-19T10:11:42.165Z,94257.00
2023-01-19T10:12:34.402Z,94257.00
2023-01-19T10:13:34.352Z,94259.00
2023-01-19T10:14:34.332Z,94257.00
2023-01-19T10:15:34.637Z,94262.00
2023-01-19T10:16:34.214Z,94257.00
2023-01-19T10:17:34.177Z,94259.00
2023-01-19T10:18:34.143Z,94259.00
2023-01-19T10:19:34.091Z,94257.00
2023-01-19T10:20:34.046Z,94257.00
2023-01-19T10:21:34.137Z,94257.00
2023-01-19T10:22:33.961Z,94255.00
2023-01-19T10:23:33.932Z,94259.00
2023-01-19T10:24:33.878Z,94257.00
2023-01-19T10:25:33.899Z,94255.00
2023-01-19T10:26:34.140Z,94253.00
2023-01-19T10:27:33.753Z,94255.00
2023-01-19T10:28:33.726Z,94257.00
2023-01-19T10:29:33.712Z,94257.00
2023-01-19T10:30:33.769Z,94257.00
2023-01-19T10:31:33.723Z,94257.00
2023-01-19T10:32:33.574Z,94257.00
2023-01-19T10:33:33.542Z,94255.00
2023-01-19T10:34:33.483Z,94255.00
2023-01-19T10:35:33.450Z,94255.00
2023-01-19T10:36:33.657Z,94257.00
2023-01-19T10:37:34.364Z,94255.00
2023-01-19T10:38:33.395Z,94255.00
2023-01-19T10:39:37.987Z,94257.00
2023-01-19T10:40:33.648Z,94255.00
2023-01-19T10:41:33.675Z,94255.00
2023-01-19T10:42:33.185Z,94255.00
2023-01-19T10:43:33.203Z,94251.00
2023-01-19T10:44:33.152Z,94253.00
2023-01-19T10:45:34.847Z,94253.00
2023-01-19T10:46:33.234Z,94253.00
2023-01-19T10:47:33.002Z,94251.00
2023-01-19T10:48:32.946Z,94251.00
2023-01-19T10:49:33.178Z,94249.00
2023-01-19T10:50:33.224Z,94245.00
2023-01-19T10:51:32.837Z,94247.00
2023-01-19T10:52:32.840Z,94249.00
2023-01-19T10:53:32.763Z,94249.00
2023-01-19T10:54:32.796Z,94247.00
2023-01-19T10:55:32.775Z,94245.00
2023-01-19T10:56:32.679Z,94245.00
2023-01-19T10:57:33.283Z,94247.00
2023-01-19T10:58:32.562Z,94241.00
2023-01-19T10:59:32.727Z,94243.00
2023-01-19T11:00:32.628Z,94243.00
2023-01-19T11:01:32.822Z,94243.00
2023-01-19T11:02:32.643Z,94241.00
2023-01-19T11:03:32.436Z,94243.00
2023-01-19T11:04:32.351Z,94239.00
2023-01-19T11:05:32.311Z,94239.00
2023-01-19T11:06:32.658Z,94239.00
2023-01-19T11:07:32.236Z,94239.00
2023-01-19T11:08:32.216Z,94239.00
2023-01-19T11:09:32.217Z,94239.00
2023-01-19T11:10:32.131Z,94239.00
2023-01-19T11:11:32.156Z,94239.00
2023-01-19T11:12:32.170Z,94237.00
2023-01-19T11:13:32.053Z,94233.00
2023-01-19T11:14:31.983Z,94237.00
2023-01-19T11:15:31.942Z,94235.00
2023-01-19T11:16:32.224Z,94231.00
2023-01-19T11:17:31.871Z,94231.00
2023-01-19T11:18:31.872Z,94229.00
2023-01-19T11:19:31.784Z,94229.00
2023-01-19T11:20:31.750Z,94229.00
2023-01-19T11:21:32.192Z,94227.00
2023-01-19T11:22:31.693Z,94227.00
2023-01-19T11:23:31.634Z,94225.00
2023-01-19T11:24:31.596Z,94227.00
2023-01-19T11:25:31.563Z,94227.00
2023-01-19T11:26:31.694Z,94225.00
2023-01-19T11:27:31.738Z,94223.00
2023-01-19T11:28:31.475Z,94225.00
2023-01-19T11:29:31.438Z,94223.00
2023-01-19T11:30:31.359Z,94227.00
2023-01-19T11:31:31.714Z,94229.00
2023-01-19T11:32:33.155Z,94227.00
2023-01-19T11:33:31.266Z,94229.00
2023-01-19T11:34:31.351Z,94227.00
2023-01-19T11:35:31.300Z,94227.00
2023-01-19T11:36:31.353Z,94223.00
2023-01-19T11:37:31.476Z,94223.00
2023-01-19T11:38:31.312Z,94217.00
2023-01-19T11:39:31.248Z,94219.00
2023-01-19T11:40:30.946Z,94217.00
2023-01-19T11:41:30.908Z,94215.00
2023-01-19T11:42:31.174Z,94213.00
2023-01-19T11:43:43.487Z,94215.00
2023-01-19T11:44:30.774Z,94213.00
2023-01-19T11:45:31.199Z,94213.00
2023-01-19T11:46:30.676Z,94211.00
2023-01-19T11:47:30.648Z,94211.00
2023-01-19T11:48:30.581Z,94211.00
2023-01-19T11:49:30.671Z,94209.00
2023-01-19T11:50:30.526Z,94209.00
2023-01-19T11:51:30.457Z,94209.00
2023-01-19T11:52:30.415Z,94207.00
2023-01-19T11:53:30.391Z,94205.00
2023-01-19T11:54:30.419Z,94205.00
2023-01-19T11:55:30.313Z,94204.00
2023-01-19T11:56:30.263Z,94204.00
2023-01-19T11:57:30.206Z,94202.00
2023-01-19T11:58:31.152Z,94202.00
2023-01-19T11:59:30.119Z,94204.00
2023-01-19T12:00:30.099Z,94202.00
2023-01-19T12:01:30.039Z,94209.00
2023-01-19T12:02:30.317Z,94207.00
2023-01-19T12:03:30.074Z,94205.00
2023-01-19T12:04:29.894Z,94204.00
2023-01-19T12:05:29.864Z,94204.00
2023-01-19T12:06:29.869Z,94204.00
2023-01-19T12:07:30.249Z,94198.00
2023-01-19T12:08:29.782Z,94198.00
2023-01-19T12:09:29.719Z,94200.00
2023-01-19T12:10:29.658Z,94198.00
2023-01-19T12:11:29.603Z,94200.00
2023-01-19T12:12:29.712Z,94198.00
2023-01-19T12:13:29.520Z,94198.00
2023-01-19T12:14:29.476Z,94196.00
2023-01-19T12:15:29.437Z,94196.00
2023-01-19T12:16:29.445Z,94192.00
2023-01-19T12:17:29.703Z,94194.00
2023-01-19T12:18:29.312Z,94198.00
2023-01-19T12:19:30.185Z,94194.00
2023-01-19T12:20:29.218Z,94196.00
2023-01-19T12:21:29.184Z,94194.00
2023-01-19T12:22:29.174Z,94198.00
2023-01-19T12:23:29.091Z,94196.00
2023-01-19T12:24:29.187Z,94198.00
2023-01-19T12:25:28.994Z,94198.00
2023-01-19T12:26:28.962Z,94196.00
2023-01-19T12:27:28.904Z,94198.00
2023-01-19T12:28:28.845Z,94200.00
2023-01-19T12:29:28.819Z,94198.00
2023-01-19T12:30:28.810Z,94198.00
2023-01-19T12:31:28.934Z,94196.00
2023-01-19T12:32:28.710Z,94198.00
2023-01-19T12:33:28.610Z,94196.00
2023-01-19T12:34:28.568Z,94194.00
2023-01-19T12:35:28.525Z,94198.00
2023-01-19T12:36:28.466Z,94196.00
2023-01-19T12:37:28.455Z,94196.00
2023-01-19T12:38:28.799Z,94194.00
2023-01-19T12:39:28.329Z,94194.00
2023-01-19T12:40:28.279Z,94194.00
2023-01-19T12:41:28.222Z,94194.00
2023-01-19T12:42:28.219Z,94194.00
2023-01-19T12:43:28.127Z,94194.00
2023-01-19T12:44:28.072Z,94190.00
2023-01-19T12:45:28.018Z,94196.00
2023-01-19T12:46:27.998Z,94194.00
2023-01-19T12:47:27.924Z,94192.00
2023-01-19T12:48:27.876Z,94192.00
2023-01-19T12:49:27.821Z,94190.00
2023-01-19T12:50:28.193Z,94186.00
2023-01-19T12:51:27.730Z,94184.00
2023-01-19T12:52:27.712Z,94180.00
2023-01-19T12:53:27.690Z,94176.00
2023-01-19T12:54:27.732Z,94184.00
2023-01-19T12:55:27.587Z,94184.00
2023-01-19T12:56:27.569Z,94180.00
2023-01-19T12:57:27.521Z,94180.00
2023-01-19T12:58:27.696Z,94178.00
2023-01-19T12:59:27.464Z,94180.00
2023-01-19T13:00:27.442Z,94176.00
2023-01-19T13:01:27.544Z,94176.00
2023-01-19T13:02:27.463Z,94178.00
2023-01-19T13:03:27.729Z,94174.00
2023-01-19T13:04:27.353Z,94176.00
2023-01-19T13:05:27.330Z,94174.00
2023-01-19T13:06:27.695Z,94172.00
2023-01-19T13:07:27.293Z,94176.00
2023-01-19T13:08:27.695Z,94178.00
2023-01-19T13:09:27.259Z,94172.00
2023-01-19T13:10:27.256Z,94176.00
2023-01-19T13:11:31.374Z,94176.00
2023-01-19T13:12:27.185Z,94174.00
2023-01-19T13:13:27.199Z,94170.00
2023-01-19T13:14:27.233Z,94174.00
2023-01-19T13:15:27.149Z,94172.00
2023-01-19T13:16:27.199Z,94176.00
2023-01-19T13:17:27.061Z,94172.00
2023-01-19T13:18:27.230Z,94174.00
2023-01-19T13:19:27.148Z,94172.00
2023-01-19T13:20:26.969Z,94170.00
2023-01-19T13:21:26.935Z,94174.00
2023-01-19T13:22:27.221Z,94174.00
2023-01-19T13:23:26.868Z,94172.00
2023-01-19T13:24:26.816Z,94176.00
2023-01-19T13:25:26.783Z,94176.00
2023-01-19T13:26:27.242Z,94176.00
2023-01-19T13:27:26.692Z,94174.00
2023-01-19T13:28:26.660Z,94178.00
2023-01-19T13:29:26.618Z,94180.00
2023-01-19T13:30:26.630Z,94182.00
2023-01-19T13:31:26.809Z,94180.00
2023-01-19T13:32:26.499Z,94182.00
2023-01-19T13:33:26.474Z,94180.00
2023-01-19T13:34:26.428Z,94182.00
2023-01-19T13:35:26.394Z,94180.00
2023-01-19T13:36:26.345Z,94180.00
2023-01-19T13:37:26.313Z,94180.00
2023-01-19T13:38:26.283Z,94180.00
2023-01-19T13:39:26.217Z,94182.00
2023-01-19T13:40:26.350Z,94180.00
2023-01-19T13:41:26.140Z,94188.00
2023-01-19T13:42:26.146Z,94188.00
2023-01-19T13:43:26.066Z,94188.00
2023-01-19T13:44:25.998Z,94190.00
2023-01-19T13:45:25.951Z,94188.00
2023-01-19T13:46:25.941Z,94188.00
2023-01-19T13:47:25.863Z,94188.00
2023-01-19T13:48:26.292Z,94188.00
2023-01-19T13:49:25.757Z,94188.00
2023-01-19T13:50:25.709Z,94188.00
2023-01-19T13:51:25.657Z,94188.00
2023-01-19T13:52:25.713Z,94190.00
2023-01-19T13:53:27.203Z,94190.00
2023-01-19T13:54:25.654Z,94190.00
2023-01-19T13:55:25.606Z,94188.00
2023-01-19T13:56:25.595Z,94188.00
2023-01-19T13:57:29.780Z,94188.00
2023-01-19T13:58:25.456Z,94188.00
2023-01-19T13:59:25.411Z,94188.00
2023-01-19T14:00:25.349Z,94186.00
2023-01-19T14:01:28.675Z,94188.00
2023-01-19T14:02:25.469Z,94186.00
2023-01-19T14:03:25.240Z,94188.00
2023-01-19T14:04:25.201Z,94184.00
2023-01-19T14:05:25.138Z,94186.00
2023-01-19T14:06:25.102Z,94188.00
2023-01-19T14:07:25.858Z,94188.00
2023-01-19T14:08:25.226Z,94188.00
2023-01-19T14:09:24.902Z,94196.00
2023-01-19T14:10:25.254Z,94196.00
2023-01-19T14:11:24.852Z,94202.00
2023-01-19T14:12:24.743Z,94200.00
2023-01-19T14:13:24.759Z,94200.00
2023-01-19T14:14:24.651Z,94204.00
2023-01-19T14:15:24.583Z,94204.00
2023-01-19T14:16:24.773Z,94204.00
2023-01-19T14:17:24.481Z,94202.00
2023-01-19T14:18:24.440Z,94204.00
2023-01-19T14:19:24.465Z,94204.00
2023-01-19T14:20:24.318Z,94202.00
2023-01-19T14:21:24.747Z,94202.00
2023-01-19T14:22:24.194Z,94204.00
2023-01-19T14:23:24.210Z,94200.00
2023-01-19T14:24:24.125Z,94204.00
2023-01-19T14:25:24.046Z,94198.00
2023-01-19T14:26:24.001Z,94198.00
2023-01-19T14:27:23.961Z,94200.00
2023-01-19T14:28:23.934Z,94200.00
2023-01-19T14:29:24.661Z,94200.00
2023-01-19T14:30:23.919Z,94202.00
2023-01-19T14:31:23.884Z,94202.00
2023-01-19T14:32:23.829Z,94205.00
2023-01-19T14:33:23.792Z,94204.00
2023-01-19T14:34:23.775Z,94207.00
2023-01-19T14:35:23.748Z,94204.00
2023-01-19T14:36:23.727Z,94207.00
2023-01-19T14:37:23.702Z,94207.00
2023-01-19T14:38:23.732Z,94204.00
2023-01-19T14:39:23.738Z,94207.00
2023-01-19T14:40:23.644Z,94209.00
2023-01-19T14:41:23.749Z,94211.00
2023-01-19T14:42:23.621Z,94211.00
2023-01-19T14:43:23.570Z,94211.00
2023-01-19T14:44:23.551Z,94211.00
2023-01-19T14:45:23.559Z,94211.00
2023-01-19T14:46:23.768Z,94211.00
2023-01-19T14:47:23.510Z,94209.00
2023-01-19T14:48:23.481Z,94211.00
2023-01-19T14:49:23.470Z,94207.00
2023-01-19T14:50:26.696Z,94209.00
2023-01-19T14:51:23.463Z,94213.00
2023-01-19T14:52:23.460Z,94209.00
2023-01-19T14:53:23.430Z,94207.00
2023-01-19T14:54:23.412Z,94205.00
2023-01-19T14:55:23.397Z,94205.00
2023-01-19T14:56:23.393Z,94209.00
2023-01-19T14:57:23.375Z,94207.00
2023-01-19T14:58:23.351Z,94211.00
2023-01-19T14:59:23.415Z,94213.00
2023-01-19T15:00:23.316Z,94213.00
2023-01-19T15:01:23.950Z,94215.00
2023-01-19T15:02:23.314Z,94215.00
2023-01-19T15:03:26.835Z,94213.00
2023-01-19T15:04:23.198Z,94219.00
2023-01-19T15:05:23.270Z,94217.00
2023-01-19T15:06:23.122Z,94219.00
2023-01-19T15:07:23.108Z,94221.00
2023-01-19T15:08:23.062Z,94221.00
2023-01-19T15:09:23.033Z,94221.00
2023-01-19T15:10:22.983Z,94221.00
2023-01-19T15:11:22.946Z,94221.00
2023-01-19T15:12:22.906Z,94223.00
2023-01-19T15:13:22.873Z,94223.00
2023-01-19T15:14:22.838Z,94221.00
2023-01-19T15:15:22.818Z,94229.00
2023-01-19T15:16:22.783Z,94225.00
2023-01-19T15:17:22.723Z,94229.00
2023-01-19T15:18:22.658Z,94225.00
2023-01-19T15:19:23.172Z,94227.00
2023-01-19T15:20:22.745Z,94229.00
2023-01-19T15:21:22.524Z,94231.00
2023-01-19T15:22:22.474Z,94231.00
2023-01-19T15:23:22.429Z,94227.00
2023-01-19T15:24:22.745Z,94229.00
2023-01-19T15:25:22.338Z,94229.00
2023-01-19T15:26:22.279Z,94231.00
2023-01-19T15:27:22.234Z,94229.00
2023-01-19T15:28:22.186Z,94231.00
2023-01-19T15:29:22.145Z,94231.00
2023-01-19T15:30:22.169Z,94231.00
2023-01-19T15:31:22.096Z,94233.00
2023-01-19T15:32:21.985Z,94239.00
2023-01-19T15:33:21.992Z,94237.00
2023-01-19T15:34:21.893Z,94241.00
2023-01-19T15:35:21.873Z,94241.00
2023-01-19T15:36:21.820Z,94241.00
2023-01-19T15:37:21.758Z,94243.00
2023-01-19T15:38:21.715Z,94241.00
2023-01-19T15:39:21.673Z,94243.00
2023-01-19T15:40:21.786Z,94237.00
2023-01-19T15:41:23.332Z,94237.00
2023-01-19T15:42:21.536Z,94237.00
2023-01-19T15:43:21.486Z,94239.00
2023-01-19T15:44:21.444Z,94237.00
2023-01-19T15:45:21.907Z,94237.00
2023-01-19T15:46:21.365Z,94239.00
2023-01-19T15:47:21.330Z,94235.00
2023-01-19T15:48:21.290Z,94237.00
2023-01-19T15:49:21.359Z,94239.00
2023-01-19T15:50:21.191Z,94237.00
2023-01-19T15:51:21.164Z,94241.00
2023-01-19T15:52:21.107Z,94239.00
2023-01-19T15:53:21.081Z,94241.00
2023-01-19T15:54:21.034Z,94239.00
2023-01-19T15:55:20.993Z,94239.00
2023-01-19T15:56:20.973Z,94239.00
2023-01-19T15:57:20.904Z,94237.00
2023-01-19T15:58:20.876Z,94237.00
2023-01-19T15:59:20.825Z,94235.00
2023-01-19T16:00:20.784Z,94235.00
2023-01-19T16:01:20.901Z,94235.00
2023-01-19T16:02:20.774Z,94235.00
2023-01-19T16:03:20.666Z,94237.00
2023-01-19T16:04:20.634Z,94235.00
2023-01-19T16:05:21.593Z,94233.00
2023-01-19T16:06:20.562Z,94235.00
2023-01-19T16:07:20.536Z,94237.00
2023-01-19T16:08:20.484Z,94237.00
2023-01-19T16:09:20.440Z,94239.00
2023-01-19T16:10:20.406Z,94235.00
2023-01-19T16:11:20.375Z,94241.00
2023-01-19T16:12:20.343Z,94241.00
2023-01-19T16:13:20.304Z,94239.00
2023-01-19T16:14:20.276Z,94241.00
2023-01-19T16:15:20.247Z,94243.00
2023-01-19T16:16:20.263Z,94243.00
2023-01-19T16:17:20.177Z,94245.00
2023-01-19T16:18:20.135Z,94243.00
2023-01-19T16:19:20.087Z,94247.00
2023-01-19T16:20:20.061Z,94247.00
2023-01-19T16:21:20.329Z,94249.00
2023-01-19T16:22:19.989Z,94251.00
2023-01-19T16:23:19.963Z,94251.00
2023-01-19T16:24:19.919Z,94253.00
2023-01-19T16:25:19.885Z,94253.00
2023-01-19T16:26:19.854Z,94249.00
2023-01-19T16:27:19.809Z,94249.00
2023-01-19T16:28:19.771Z,94253.00
2023-01-19T16:29:19.749Z,94249.00
2023-01-19T16:30:19.786Z,94251.00
2023-01-19T16:31:19.699Z,94255.00
2023-01-19T16:32:19.627Z,94255.00
2023-01-19T16:33:19.598Z,94257.00
2023-01-19T16:34:19.561Z,94255.00
2023-01-19T16:35:19.548Z,94257.00
2023-01-19T16:36:19.773Z,94259.00
2023-01-19T16:37:19.481Z,94257.00
2023-01-19T16:38:19.418Z,94260.00
2023-01-19T16:39:19.374Z,94260.00
2023-01-19T16:40:19.334Z,94260.00
2023-01-19T16:41:19.310Z,94259.00
2023-01-19T16:42:19.261Z,94260.00
2023-01-19T16:43:19.219Z,94260.00
2023-01-19T16:44:19.196Z,94262.00
2023-01-19T16:45:19.151Z,94262.00
2023-01-19T16:46:19.119Z,94264.00
2023-01-19T16:47:19.069Z,94264.00
2023-01-19T16:48:19.036Z,94266.00
2023-01-19T16:49:19.013Z,94266.00
2023-01-19T16:50:19.018Z,94264.00
2023-01-19T16:51:18.938Z,94264.00
2023-01-19T16:52:18.894Z,94264.00
2023-01-19T16:53:17.896Z,94264.00
2023-01-19T16:54:18.815Z,94260.00
2023-01-19T16:55:18.783Z,94260.00
2023-01-19T16:56:18.755Z,94262.00
2023-01-19T16:57:18.706Z,94259.00
2023-01-19T16:58:18.672Z,94260.00
2023-01-19T16:59:18.639Z,94262.00
2023-01-19T17:00:19.275Z,94262.00
2023-01-19T17:01:20.151Z,94260.00
2023-01-19T17:02:18.522Z,94264.00
2023-01-19T17:03:18.488Z,94266.00
2023-01-19T17:04:18.461Z,94266.00
2023-01-19T17:05:18.417Z,94268.00
2023-01-19T17:06:18.411Z,94270.00
2023-01-19T17:07:19.206Z,94268.00
2023-01-19T17:08:18.316Z,94270.00
2023-01-19T17:09:18.308Z,94272.00
2023-01-19T17:10:18.272Z,94272.00
2023-01-19T17:11:18.218Z,94274.00
2023-01-19T17:12:18.201Z,94276.00
2023-01-19T17:13:18.152Z,94278.00
2023-01-19T17:14:18.132Z,94280.00
2023-01-19T17:15:18.091Z,94276.00
2023-01-19T17:16:18.093Z,94278.00
2023-01-19T17:17:18.027Z,94282.00
2023-01-19T17:18:17.997Z,94286.00
2023-01-19T17:19:17.970Z,94286.00
2023-01-19T17:20:17.920Z,94284.00
2023-01-19T17:21:18.015Z,94280.00
2023-01-19T17:22:17.883Z,94286.00
2023-01-19T17:23:17.821Z,94284.00
2023-01-19T17:24:17.822Z,94282.00
2023-01-19T17:25:17.774Z,94282.00
2023-01-19T17:26:17.807Z,94282.00
2023-01-19T17:27:17.706Z,94280.00
2023-01-19T17:28:17.657Z,94284.00
2023-01-19T17:29:17.703Z,94284.00
2023-01-19T17:30:17.588Z,94282.00
2023-01-19T17:31:17.761Z,94286.00
2023-01-19T17:32:17.500Z,94286.00
2023-01-19T17:33:17.464Z,94286.00
2023-01-19T17:34:17.436Z,94286.00
2023-01-19T17:35:17.396Z,94286.00
2023-01-19T17:36:17.366Z,94286.00
2023-01-19T17:37:17.332Z,94286.00
2023-01-19T17:38:17.303Z,94286.00
2023-01-19T17:39:17.272Z,94286.00
2023-01-19T17:40:17.248Z,94288.00
2023-01-19T17:41:17.247Z,94286.00
2023-01-19T17:42:17.184Z,94288.00
2023-01-19T17:43:17.165Z,94284.00
2023-01-19T17:44:17.148Z,94284.00
2023-01-19T17:45:17.111Z,94286.00
2023-01-19T17:46:17.121Z,94284.00